createdAt,value
2023-01-17T00:00:58.699Z,955.73
2023-01-17T00:01:58.430Z,955.74
2023-01-17T00:02:58.555Z,955.72
2023-01-17T00:03:58.625Z,955.76
2023-01-17T00:04:58.652Z,955.74
2023-01-17T00:05:58.397Z,955.78
2023-01-17T00:06:58.478Z,955.81
2023-01-17T00:07:58.514Z,955.95
2023-01-17T00:08:58.586Z,955.73
2023-01-17T00:09:58.660Z,955.79
2023-01-17T00:10:58.698Z,955.88
2023-01-17T00:11:58.749Z,955.85
2023-01-17T00:12:58.473Z,955.89
2023-01-17T00:13:58.866Z,955.80
2023-01-17T00:14:58.931Z,955.95
2023-01-17T00:15:59.018Z,955.89
2023-01-17T00:16:58.307Z,955.87
2023-01-17T00:17:58.277Z,955.71
2023-01-17T00:18:58.357Z,955.82
2023-01-17T00:19:58.391Z,955.96
2023-01-17T00:20:58.427Z,955.91
2023-01-17T00:21:58.487Z,955.92
2023-01-17T00:22:58.636Z,956.00
2023-01-17T00:23:58.593Z,955.86
2023-01-17T00:24:58.862Z,955.93
2023-01-17T00:25:58.745Z,956.05
2023-01-17T00:26:58.213Z,956.00
2023-01-17T00:27:58.834Z,955.96
2023-01-17T00:28:58.855Z,956.04
2023-01-17T00:29:58.970Z,955.99
2023-01-17T00:30:58.936Z,955.99
2023-01-17T00:31:59.095Z,955.94
2023-01-17T00:32:58.479Z,956.00
2023-01-17T00:33:58.883Z,955.97
2023-01-17T00:34:58.787Z,955.94
2023-01-17T00:35:58.961Z,956.17
2023-01-17T00:36:58.204Z,956.29
2023-01-17T00:37:58.025Z,956.07
2023-01-17T00:38:58.664Z,956.09
2023-01-17T00:39:59.175Z,956.12
2023-01-17T00:40:58.725Z,956.11
2023-01-17T00:41:58.027Z,956.12
2023-01-17T00:42:57.921Z,956.12
2023-01-17T00:43:58.708Z,956.15
2023-01-17T00:44:58.855Z,956.15
2023-01-17T00:45:57.861Z,956.19
2023-01-17T00:46:57.908Z,956.12
2023-01-17T00:47:57.952Z,956.16
2023-01-17T00:48:58.015Z,956.22
2023-01-17T00:49:58.054Z,956.20
2023-01-17T00:50:58.116Z,956.28
2023-01-17T00:51:58.176Z,956.39
2023-01-17T00:52:58.232Z,956.33
2023-01-17T00:53:58.328Z,956.26
2023-01-17T00:54:58.356Z,956.34
2023-01-17T00:55:58.439Z,956.37
2023-01-17T00:56:58.229Z,956.26
2023-01-17T00:57:58.513Z,956.38
2023-01-17T00:58:58.531Z,956.37
2023-01-17T00:59:57.750Z,956.43
2023-01-17T01:00:58.185Z,956.37
2023-01-17T01:01:58.712Z,956.40
2023-01-17T01:02:57.901Z,956.41
2023-01-17T01:03:58.850Z,956.41
2023-01-17T01:04:58.998Z,956.44
2023-01-17T01:05:58.370Z,956.43
2023-01-17T01:06:57.620Z,956.51
2023-01-17T01:07:58.445Z,956.50
2023-01-17T01:08:58.112Z,956.54
2023-01-17T01:09:58.531Z,956.58
2023-01-17T01:10:58.128Z,956.55
2023-01-17T01:11:58.309Z,956.61
2023-01-17T01:12:58.028Z,956.55
2023-01-17T01:13:58.368Z,956.71
2023-01-17T01:14:57.493Z,956.73
2023-01-17T01:15:57.573Z,956.70
2023-01-17T01:16:57.516Z,956.75
2023-01-17T01:17:57.647Z,956.71
2023-01-17T01:18:57.695Z,956.71
2023-01-17T01:19:57.425Z,956.75
2023-01-17T01:20:57.479Z,956.78
2023-01-17T01:21:59.329Z,956.87
2023-01-17T01:22:57.407Z,956.78
2023-01-17T01:23:57.407Z,956.95
2023-01-17T01:24:57.411Z,956.87
2023-01-17T01:25:57.346Z,956.84
2023-01-17T01:26:58.136Z,956.78
2023-01-17T01:27:57.406Z,956.84
2023-01-17T01:28:57.407Z,956.81
2023-01-17T01:29:57.437Z,956.78
2023-01-17T01:30:57.408Z,956.78
2023-01-17T01:31:57.436Z,956.87
2023-01-17T01:32:57.405Z,956.81
2023-01-17T01:33:57.421Z,956.83
2023-01-17T01:34:57.429Z,956.82
2023-01-17T01:35:57.416Z,956.84
2023-01-17T01:36:57.229Z,956.82
2023-01-17T01:37:57.200Z,956.85
2023-01-17T01:38:57.416Z,956.90
2023-01-17T01:39:57.363Z,956.93
2023-01-17T01:40:57.413Z,956.97
2023-01-17T01:41:57.505Z,956.97
2023-01-17T01:42:57.147Z,956.94
2023-01-17T01:43:57.125Z,956.97
2023-01-17T01:44:57.145Z,957.01
2023-01-17T01:45:57.295Z,957.00
2023-01-17T01:46:57.204Z,956.94
2023-01-17T01:47:57.319Z,956.97
2023-01-17T01:48:57.375Z,957.00
2023-01-17T01:49:57.413Z,957.20
2023-01-17T01:50:57.410Z,956.96
2023-01-17T01:51:57.421Z,957.14
2023-01-17T01:52:57.403Z,957.06
2023-01-17T01:53:57.474Z,957.06
2023-01-17T01:54:57.417Z,957.06
2023-01-17T01:55:57.492Z,957.03
2023-01-17T01:56:57.308Z,957.01
2023-01-17T01:57:57.417Z,957.09
2023-01-17T01:58:57.013Z,957.06
2023-01-17T01:59:57.423Z,957.06
2023-01-17T02:00:57.598Z,957.05
2023-01-17T02:01:57.446Z,957.13
2023-01-17T02:02:56.986Z,957.12
2023-01-17T02:03:57.436Z,957.07
2023-01-17T02:04:57.442Z,957.07
2023-01-17T02:05:57.421Z,957.09
2023-01-17T02:06:57.203Z,957.25
2023-01-17T02:07:57.410Z,957.32
2023-01-17T02:08:57.408Z,957.11
2023-01-17T02:09:57.420Z,957.10
2023-01-17T02:10:57.410Z,957.17
2023-01-17T02:11:57.411Z,957.11
2023-01-17T02:12:56.758Z,957.19
2023-01-17T02:13:56.869Z,957.14
2023-01-17T02:14:56.839Z,957.23
2023-01-17T02:15:57.010Z,957.21
2023-01-17T02:16:56.705Z,957.28
2023-01-17T02:17:56.689Z,957.34
2023-01-17T02:18:56.729Z,957.28
2023-01-17T02:19:56.778Z,957.24
2023-01-17T02:20:56.650Z,957.28
2023-01-17T02:21:56.619Z,957.32
2023-01-17T02:22:56.648Z,957.38
2023-01-17T02:23:56.708Z,957.35
2023-01-17T02:24:56.770Z,957.45
2023-01-17T02:25:56.829Z,957.35
2023-01-17T02:26:56.668Z,957.38
2023-01-17T02:27:56.564Z,957.45
2023-01-17T02:28:56.647Z,957.43
2023-01-17T02:29:56.558Z,957.39
2023-01-17T02:30:56.836Z,957.42
2023-01-17T02:31:56.899Z,957.40
2023-01-17T02:32:56.531Z,957.41
2023-01-17T02:33:56.977Z,957.30
2023-01-17T02:34:57.036Z,957.40
2023-01-17T02:35:57.100Z,957.38
2023-01-17T02:36:57.147Z,957.34
2023-01-17T02:37:56.657Z,957.39
2023-01-17T02:38:57.305Z,957.42
2023-01-17T02:39:56.516Z,957.43
2023-01-17T02:40:57.209Z,957.41
2023-01-17T02:41:56.402Z,957.41
2023-01-17T02:42:56.448Z,957.43
2023-01-17T02:43:56.523Z,957.44
2023-01-17T02:44:56.569Z,957.49
2023-01-17T02:45:56.662Z,957.49
2023-01-17T02:46:56.675Z,957.49
2023-01-17T02:47:56.738Z,957.45
2023-01-17T02:48:56.791Z,957.50
2023-01-17T02:49:56.824Z,957.51
2023-01-17T02:50:56.897Z,957.48
2023-01-17T02:51:56.236Z,957.53
2023-01-17T02:52:56.994Z,957.59
2023-01-17T02:53:57.059Z,957.56
2023-01-17T02:54:56.564Z,957.56
2023-01-17T02:55:57.029Z,957.62
2023-01-17T02:56:56.185Z,957.56
2023-01-17T02:57:57.106Z,957.60
2023-01-17T02:58:57.211Z,957.73
2023-01-17T02:59:57.237Z,957.63
2023-01-17T03:00:56.242Z,957.71
2023-01-17T03:01:57.157Z,957.70
2023-01-17T03:02:56.882Z,957.67
2023-01-17T03:03:56.307Z,957.79
2023-01-17T03:04:56.933Z,957.76
2023-01-17T03:05:56.152Z,957.76
2023-01-17T03:06:56.940Z,957.85
2023-01-17T03:07:56.901Z,957.82
2023-01-17T03:08:56.808Z,957.88
2023-01-17T03:09:56.703Z,957.81
2023-01-17T03:10:56.003Z,958.01
2023-01-17T03:11:56.056Z,958.03
2023-01-17T03:12:56.122Z,957.96
2023-01-17T03:13:56.243Z,957.92
2023-01-17T03:14:56.243Z,957.98
2023-01-17T03:15:56.030Z,958.01
2023-01-17T03:16:56.518Z,958.07
2023-01-17T03:17:56.533Z,958.07
2023-01-17T03:18:56.635Z,958.03
2023-01-17T03:19:56.632Z,958.08
2023-01-17T03:20:56.669Z,958.06
2023-01-17T03:21:56.819Z,958.10
2023-01-17T03:22:56.753Z,958.14
2023-01-17T03:23:56.647Z,958.10
2023-01-17T03:24:56.919Z,958.09
2023-01-17T03:25:56.713Z,958.19
2023-01-17T03:26:56.669Z,958.22
2023-01-17T03:27:56.525Z,958.16
2023-01-17T03:28:56.682Z,958.20
2023-01-17T03:29:56.040Z,958.15
2023-01-17T03:30:56.573Z,958.27
2023-01-17T03:31:56.652Z,958.15
2023-01-17T03:32:56.554Z,958.17
2023-01-17T03:33:56.454Z,958.14
2023-01-17T03:34:56.625Z,958.10
2023-01-17T03:35:55.675Z,958.12
2023-01-17T03:36:55.708Z,958.15
2023-01-17T03:37:55.648Z,958.23
2023-01-17T03:38:55.803Z,958.20
2023-01-17T03:39:55.846Z,958.24
2023-01-17T03:40:55.915Z,958.23
2023-01-17T03:41:55.968Z,958.26
2023-01-17T03:42:56.032Z,958.17
2023-01-17T03:43:56.126Z,958.42
2023-01-17T03:44:56.244Z,958.30
2023-01-17T03:45:56.228Z,958.23
2023-01-17T03:46:56.027Z,958.27
2023-01-17T03:47:56.310Z,958.36
2023-01-17T03:48:56.313Z,958.31
2023-01-17T03:49:56.196Z,958.37
2023-01-17T03:50:55.935Z,958.43
2023-01-17T03:51:56.257Z,958.42
2023-01-17T03:52:56.414Z,958.38
2023-01-17T03:53:56.326Z,958.37
2023-01-17T03:54:55.466Z,958.40
2023-01-17T03:55:56.817Z,958.36
2023-01-17T03:56:56.293Z,958.39
2023-01-17T03:57:56.207Z,958.42
2023-01-17T03:58:56.103Z,958.41
2023-01-17T03:59:56.282Z,958.40
2023-01-17T04:00:56.092Z,958.42
2023-01-17T04:01:56.090Z,958.48
2023-01-17T04:02:56.079Z,958.54
2023-01-17T04:03:56.145Z,958.56
2023-01-17T04:04:55.345Z,958.54
2023-01-17T04:05:55.350Z,958.61
2023-01-17T04:06:55.379Z,958.53
2023-01-17T04:07:55.431Z,958.72
2023-01-17T04:08:55.472Z,958.68
2023-01-17T04:09:55.559Z,958.68
2023-01-17T04:10:55.588Z,958.70
2023-01-17T04:11:55.657Z,958.72
2023-01-17T04:12:55.700Z,958.71
2023-01-17T04:13:55.764Z,958.74
2023-01-17T04:14:55.201Z,958.76
2023-01-17T04:15:55.921Z,958.75
2023-01-17T04:16:55.184Z,958.74
2023-01-17T04:17:55.978Z,958.79
2023-01-17T04:18:55.975Z,958.77
2023-01-17T04:19:55.881Z,958.74
2023-01-17T04:20:56.056Z,958.89
2023-01-17T04:21:56.100Z,958.89
2023-01-17T04:22:55.060Z,958.80
2023-01-17T04:23:56.014Z,958.94
2023-01-17T04:24:55.911Z,958.91
2023-01-17T04:25:55.291Z,958.92
2023-01-17T04:26:55.220Z,959.02
2023-01-17T04:27:56.341Z,958.97
2023-01-17T04:28:55.786Z,959.04
2023-01-17T04:29:56.215Z,958.99
2023-01-17T04:30:55.045Z,958.96
2023-01-17T04:31:55.414Z,959.11
2023-01-17T04:32:55.023Z,959.09
2023-01-17T04:33:54.947Z,959.11
2023-01-17T04:34:54.946Z,959.14
2023-01-17T04:35:54.994Z,959.10
2023-01-17T04:36:54.885Z,959.10
2023-01-17T04:37:55.107Z,959.07
2023-01-17T04:38:54.867Z,959.21
2023-01-17T04:39:54.894Z,959.24
2023-01-17T04:40:55.276Z,959.29
2023-01-17T04:41:54.875Z,959.33
2023-01-17T04:42:54.927Z,959.34
2023-01-17T04:43:54.992Z,959.37
2023-01-17T04:44:54.799Z,959.45
2023-01-17T04:45:54.874Z,959.45
2023-01-17T04:46:54.912Z,959.49
2023-01-17T04:47:55.219Z,959.38
2023-01-17T04:48:54.746Z,959.44
2023-01-17T04:49:54.745Z,959.53
2023-01-17T04:50:54.805Z,959.56
2023-01-17T04:51:54.701Z,959.61
2023-01-17T04:52:54.914Z,959.63
2023-01-17T04:53:54.975Z,959.62
2023-01-17T04:54:55.034Z,959.67
2023-01-17T04:55:55.007Z,959.69
2023-01-17T04:56:55.154Z,959.70
2023-01-17T04:57:55.207Z,959.69
2023-01-17T04:58:55.271Z,959.81
2023-01-17T04:59:55.335Z,959.75
2023-01-17T05:00:54.618Z,959.74
2023-01-17T05:01:54.647Z,959.91
2023-01-17T05:02:54.687Z,959.87
2023-01-17T05:03:54.657Z,959.85
2023-01-17T05:04:54.712Z,959.89
2023-01-17T05:05:54.830Z,959.89
2023-01-17T05:06:54.823Z,959.89
2023-01-17T05:07:54.894Z,959.92
2023-01-17T05:08:54.928Z,959.98
2023-01-17T05:09:54.985Z,960.01
2023-01-17T05:10:55.053Z,959.99
2023-01-17T05:11:55.093Z,959.92
2023-01-17T05:12:55.155Z,960.00
2023-01-17T05:13:54.979Z,960.06
2023-01-17T05:14:55.215Z,960.09
2023-01-17T05:15:55.149Z,960.11
2023-01-17T05:16:55.222Z,960.11
2023-01-17T05:17:54.356Z,960.09
2023-01-17T05:18:55.097Z,960.21
2023-01-17T05:19:55.241Z,960.23
2023-01-17T05:20:55.022Z,960.28
2023-01-17T05:21:55.039Z,960.23
2023-01-17T05:22:55.199Z,960.23
2023-01-17T05:23:55.111Z,960.21
2023-01-17T05:24:54.258Z,960.24
2023-01-17T05:25:54.289Z,960.24
2023-01-17T05:26:54.246Z,960.27
2023-01-17T05:27:58.357Z,960.31
2023-01-17T05:28:54.237Z,960.33
2023-01-17T05:29:54.238Z,960.41
2023-01-17T05:30:54.276Z,960.48
2023-01-17T05:31:54.179Z,960.50
2023-01-17T05:32:54.285Z,960.52
2023-01-17T05:33:54.245Z,960.69
2023-01-17T05:34:54.248Z,960.62
2023-01-17T05:35:54.515Z,960.51
2023-01-17T05:36:54.242Z,960.54
2023-01-17T05:37:54.142Z,960.74
2023-01-17T05:38:54.248Z,960.76
2023-01-17T05:39:54.258Z,960.70
2023-01-17T05:40:54.262Z,960.74
2023-01-17T05:41:54.247Z,960.71
2023-01-17T05:42:54.247Z,960.64
2023-01-17T05:43:54.253Z,960.70
2023-01-17T05:44:54.064Z,960.71
2023-01-17T05:45:54.457Z,960.76
2023-01-17T05:46:54.259Z,960.74
2023-01-17T05:47:54.188Z,960.73
2023-01-17T05:48:54.232Z,960.75
2023-01-17T05:49:54.055Z,960.74
2023-01-17T05:50:54.221Z,960.84
2023-01-17T05:51:54.995Z,960.82
2023-01-17T05:52:54.248Z,960.78
2023-01-17T05:53:53.884Z,960.91
2023-01-17T05:54:54.416Z,960.75
2023-01-17T05:55:54.174Z,960.79
2023-01-17T05:56:54.748Z,960.85
2023-01-17T05:57:54.243Z,960.95
2023-01-17T05:58:54.249Z,960.77
2023-01-17T05:59:53.814Z,960.88
2023-01-17T06:00:54.041Z,960.92
2023-01-17T06:01:53.892Z,960.86
2023-01-17T06:02:53.850Z,960.94
2023-01-17T06:03:54.052Z,960.92
2023-01-17T06:04:54.141Z,960.91
2023-01-17T06:05:53.776Z,960.99
2023-01-17T06:06:53.761Z,960.99
2023-01-17T06:07:53.982Z,961.06
2023-01-17T06:08:54.258Z,961.12
2023-01-17T06:09:54.044Z,961.17
2023-01-17T06:10:54.260Z,961.13
2023-01-17T06:11:54.304Z,961.22
2023-01-17T06:12:54.471Z,961.16
2023-01-17T06:13:53.642Z,961.19
2023-01-17T06:14:54.251Z,961.23
2023-01-17T06:15:54.176Z,961.21
2023-01-17T06:16:54.258Z,961.19
2023-01-17T06:17:53.597Z,961.22
2023-01-17T06:18:54.253Z,961.22
2023-01-17T06:19:54.258Z,961.32
2023-01-17T06:20:53.791Z,961.20
2023-01-17T06:21:53.619Z,961.25
2023-01-17T06:22:54.277Z,961.30
2023-01-17T06:23:54.278Z,961.30
2023-01-17T06:24:53.490Z,961.33
2023-01-17T06:25:54.296Z,961.30
2023-01-17T06:26:54.089Z,961.27
2023-01-17T06:27:53.470Z,961.32
2023-01-17T06:28:53.810Z,961.33
2023-01-17T06:29:53.497Z,961.29
2023-01-17T06:30:53.600Z,961.29
2023-01-17T06:31:53.616Z,961.41
2023-01-17T06:32:53.610Z,961.40
2023-01-17T06:33:53.788Z,961.46
2023-01-17T06:34:53.682Z,961.48
2023-01-17T06:35:53.855Z,961.51
2023-01-17T06:36:53.845Z,961.42
2023-01-17T06:37:53.646Z,961.55
2023-01-17T06:38:53.957Z,961.54
2023-01-17T06:39:53.756Z,961.53
2023-01-17T06:40:54.076Z,961.52
2023-01-17T06:41:54.025Z,961.54
2023-01-17T06:42:54.184Z,961.57
2023-01-17T06:43:54.204Z,961.46
2023-01-17T06:44:54.292Z,961.55
2023-01-17T06:45:53.285Z,961.53
2023-01-17T06:46:53.338Z,961.60
2023-01-17T06:47:53.958Z,961.60
2023-01-17T06:48:53.205Z,961.51
2023-01-17T06:49:54.017Z,961.58
2023-01-17T06:50:53.730Z,961.54
2023-01-17T06:51:53.411Z,961.65
2023-01-17T06:52:53.991Z,961.65
2023-01-17T06:53:53.685Z,961.68
2023-01-17T06:54:53.815Z,961.68
2023-01-17T06:55:53.944Z,961.71
2023-01-17T06:56:53.264Z,961.79
2023-01-17T06:57:53.886Z,961.75
2023-01-17T06:58:53.929Z,961.74
2023-01-17T06:59:53.823Z,961.64
2023-01-17T07:00:53.109Z,961.80
2023-01-17T07:01:52.979Z,961.77
2023-01-17T07:02:53.081Z,961.88
2023-01-17T07:03:53.176Z,961.85
2023-01-17T07:04:52.957Z,961.90
2023-01-17T07:05:52.974Z,961.85
2023-01-17T07:06:53.023Z,961.93
2023-01-17T07:07:52.902Z,961.97
2023-01-17T07:08:52.860Z,961.93
2023-01-17T07:09:52.911Z,962.01
2023-01-17T07:10:52.933Z,961.99
2023-01-17T07:11:57.070Z,962.00
2023-01-17T07:12:53.041Z,962.00
2023-01-17T07:13:53.108Z,961.98
2023-01-17T07:14:52.970Z,962.04
2023-01-17T07:15:53.266Z,962.10
2023-01-17T07:16:53.273Z,962.03
2023-01-17T07:17:53.330Z,962.06
2023-01-17T07:18:53.407Z,962.08
2023-01-17T07:19:53.520Z,962.15
2023-01-17T07:20:53.620Z,962.10
2023-01-17T07:21:53.508Z,962.13
2023-01-17T07:22:53.424Z,962.11
2023-01-17T07:23:53.571Z,962.21
2023-01-17T07:24:52.728Z,962.16
2023-01-17T07:25:52.722Z,962.09
2023-01-17T07:26:52.642Z,962.21
2023-01-17T07:27:52.638Z,962.10
2023-01-17T07:28:52.741Z,962.20
2023-01-17T07:29:54.218Z,962.20
2023-01-17T07:30:52.860Z,962.18
2023-01-17T07:31:52.567Z,962.17
2023-01-17T07:32:52.566Z,962.19
2023-01-17T07:33:52.568Z,962.26
2023-01-17T07:34:53.017Z,962.21
2023-01-17T07:35:53.009Z,962.30
2023-01-17T07:36:53.206Z,962.25
2023-01-17T07:37:52.498Z,962.30
2023-01-17T07:38:52.477Z,962.31
2023-01-17T07:39:52.503Z,962.31
2023-01-17T07:40:52.536Z,962.28
2023-01-17T07:41:52.475Z,962.31
2023-01-17T07:42:52.525Z,962.30
2023-01-17T07:43:52.687Z,962.34
2023-01-17T07:44:52.534Z,962.32
2023-01-17T07:45:52.541Z,962.35
2023-01-17T07:46:52.481Z,962.35
2023-01-17T07:47:52.566Z,962.37
2023-01-17T07:48:52.356Z,962.35
2023-01-17T07:49:52.588Z,962.43
2023-01-17T07:50:52.575Z,962.38
2023-01-17T07:51:52.364Z,962.51
2023-01-17T07:52:52.486Z,962.50
2023-01-17T07:53:52.501Z,962.40
2023-01-17T07:54:52.493Z,962.37
2023-01-17T07:55:52.504Z,962.42
2023-01-17T07:56:52.303Z,962.41
2023-01-17T07:57:52.245Z,962.45
2023-01-17T07:58:52.222Z,962.49
2023-01-17T07:59:52.422Z,962.39
2023-01-17T08:00:52.265Z,962.54
2023-01-17T08:01:52.656Z,962.44
2023-01-17T08:02:52.643Z,962.50
2023-01-17T08:03:52.183Z,962.49
2023-01-17T08:04:52.525Z,962.48
2023-01-17T08:05:52.225Z,962.51
2023-01-17T08:06:52.637Z,962.49
2023-01-17T08:07:52.282Z,962.51
2023-01-17T08:08:52.480Z,962.49
2023-01-17T08:09:52.094Z,962.46
2023-01-17T08:10:52.490Z,962.55
2023-01-17T08:11:52.511Z,962.59
2023-01-17T08:12:52.516Z,962.57
2023-01-17T08:13:52.038Z,962.64
2023-01-17T08:14:52.532Z,962.62
2023-01-17T08:15:52.035Z,962.64
2023-01-17T08:16:52.541Z,962.60
2023-01-17T08:17:52.571Z,962.65
2023-01-17T08:18:52.044Z,962.45
2023-01-17T08:19:52.558Z,962.68
2023-01-17T08:20:52.561Z,962.74
2023-01-17T08:21:52.576Z,962.68
2023-01-17T08:22:52.574Z,962.73
2023-01-17T08:23:52.087Z,962.74
2023-01-17T08:24:52.491Z,962.77
2023-01-17T08:25:51.889Z,962.80
2023-01-17T08:26:51.895Z,962.77
2023-01-17T08:27:51.999Z,962.78
2023-01-17T08:28:51.845Z,962.76
2023-01-17T08:29:52.023Z,962.73
2023-01-17T08:30:52.118Z,962.75
2023-01-17T08:31:52.226Z,962.78
2023-01-17T08:32:52.228Z,962.77
2023-01-17T08:33:51.816Z,962.83
2023-01-17T08:34:52.355Z,962.87
2023-01-17T08:35:51.766Z,962.86
2023-01-17T08:36:51.767Z,962.74
2023-01-17T08:37:51.754Z,962.89
2023-01-17T08:38:51.745Z,962.92
2023-01-17T08:39:51.762Z,962.86
2023-01-17T08:40:52.095Z,962.89
2023-01-17T08:41:52.485Z,962.90
2023-01-17T08:42:52.394Z,962.89
2023-01-17T08:43:52.560Z,962.95
2023-01-17T08:44:52.479Z,962.95
2023-01-17T08:45:52.412Z,962.95
2023-01-17T08:46:52.516Z,962.99
2023-01-17T08:47:52.433Z,962.93
2023-01-17T08:48:52.322Z,962.97
2023-01-17T08:49:51.575Z,962.94
2023-01-17T08:50:52.384Z,962.98
2023-01-17T08:51:51.565Z,963.00
2023-01-17T08:52:52.061Z,962.96
2023-01-17T08:53:52.353Z,963.01
2023-01-17T08:54:52.084Z,962.97
2023-01-17T08:55:51.505Z,963.03
2023-01-17T08:56:51.563Z,962.99
2023-01-17T08:57:51.574Z,963.02
2023-01-17T08:58:51.673Z,963.03
2023-01-17T08:59:51.685Z,963.06
2023-01-17T09:00:51.876Z,963.00
2023-01-17T09:01:51.540Z,963.05
2023-01-17T09:02:51.903Z,963.04
2023-01-17T09:03:51.972Z,963.05
2023-01-17T09:04:51.831Z,963.02
2023-01-17T09:05:52.012Z,963.06
2023-01-17T09:06:52.134Z,963.13
2023-01-17T09:07:51.363Z,963.12
2023-01-17T09:08:52.165Z,963.11
2023-01-17T09:09:52.112Z,963.12
2023-01-17T09:10:51.328Z,963.14
2023-01-17T09:11:52.188Z,963.09
2023-01-17T09:12:52.438Z,963.12
2023-01-17T09:13:52.038Z,963.14
2023-01-17T09:14:52.138Z,963.16
2023-01-17T09:15:52.039Z,963.10
2023-01-17T09:16:52.530Z,963.18
2023-01-17T09:17:51.224Z,963.14
2023-01-17T09:18:51.240Z,963.11
2023-01-17T09:19:52.160Z,963.16
2023-01-17T09:20:52.070Z,963.07
2023-01-17T09:21:51.189Z,963.15
2023-01-17T09:22:51.218Z,963.18
2023-01-17T09:23:51.330Z,963.16
2023-01-17T09:24:51.318Z,963.17
2023-01-17T09:25:51.118Z,963.20
2023-01-17T09:26:51.177Z,963.19
2023-01-17T09:27:51.209Z,963.24
2023-01-17T09:28:51.259Z,963.22
2023-01-17T09:29:51.062Z,963.27
2023-01-17T09:30:51.110Z,963.25
2023-01-17T09:31:51.188Z,963.27
2023-01-17T09:32:51.197Z,963.27
2023-01-17T09:33:51.259Z,963.28
2023-01-17T09:34:51.395Z,963.25
2023-01-17T09:35:51.383Z,963.24
2023-01-17T09:36:51.427Z,963.24
2023-01-17T09:37:51.513Z,963.27
2023-01-17T09:38:51.237Z,963.28
2023-01-17T09:39:51.062Z,963.36
2023-01-17T09:40:51.023Z,963.35
2023-01-17T09:41:51.725Z,963.33
2023-01-17T09:42:51.760Z,963.37
2023-01-17T09:43:51.834Z,963.38
2023-01-17T09:44:51.811Z,963.33
2023-01-17T09:45:51.757Z,963.37
2023-01-17T09:46:50.989Z,963.36
2023-01-17T09:47:50.855Z,963.38
2023-01-17T09:48:50.827Z,963.43
2023-01-17T09:49:51.584Z,963.50
2023-01-17T09:50:51.745Z,963.44
2023-01-17T09:51:51.655Z,963.45
2023-01-17T09:52:51.564Z,963.48
2023-01-17T09:53:51.717Z,963.46
2023-01-17T09:54:52.221Z,963.50
2023-01-17T09:55:50.724Z,963.55
2023-01-17T09:56:50.812Z,963.59
2023-01-17T09:57:50.837Z,963.54
2023-01-17T09:58:50.897Z,963.59
2023-01-17T10:00:02.680Z,963.55
2023-01-17T10:00:52.536Z,963.53
2023-01-17T10:01:51.169Z,963.57
2023-01-17T10:02:50.873Z,963.55
2023-01-17T10:03:51.285Z,963.51
2023-01-17T10:04:51.279Z,963.56
2023-01-17T10:05:50.693Z,963.52
2023-01-17T10:06:51.332Z,963.46
2023-01-17T10:07:51.401Z,963.50
2023-01-17T10:08:51.302Z,963.47
2023-01-17T10:09:51.510Z,963.48
2023-01-17T10:10:51.362Z,963.48
2023-01-17T10:11:50.760Z,963.46
2023-01-17T10:12:50.549Z,963.44
2023-01-17T10:13:50.853Z,963.44
2023-01-17T10:14:51.769Z,963.39
2023-01-17T10:15:51.401Z,963.39
2023-01-17T10:16:51.342Z,963.40
2023-01-17T10:17:51.208Z,963.40
2023-01-17T10:18:50.453Z,963.39
2023-01-17T10:19:50.557Z,963.44
2023-01-17T10:20:50.528Z,963.40
2023-01-17T10:21:51.270Z,963.45
2023-01-17T10:22:51.254Z,963.47
2023-01-17T10:23:51.139Z,963.45
2023-01-17T10:24:50.359Z,963.49
2023-01-17T10:25:50.391Z,963.47
2023-01-17T10:26:50.435Z,963.48
2023-01-17T10:27:50.470Z,963.46
2023-01-17T10:28:50.528Z,963.50
2023-01-17T10:29:50.623Z,963.51
2023-01-17T10:30:50.695Z,963.53
2023-01-17T10:31:50.690Z,963.54
2023-01-17T10:32:50.984Z,963.55
2023-01-17T10:33:50.812Z,963.54
2023-01-17T10:34:50.849Z,963.54
2023-01-17T10:35:50.756Z,963.52
2023-01-17T10:36:50.970Z,963.56
2023-01-17T10:37:50.271Z,963.53
2023-01-17T10:38:50.989Z,963.57
2023-01-17T10:39:51.200Z,963.61
2023-01-17T10:40:51.228Z,963.56
2023-01-17T10:41:51.309Z,963.63
2023-01-17T10:42:50.190Z,963.63
2023-01-17T10:43:51.022Z,963.62
2023-01-17T10:44:50.195Z,963.63
2023-01-17T10:45:50.854Z,963.58
2023-01-17T10:46:50.773Z,963.59
2023-01-17T10:47:50.892Z,963.55
2023-01-17T10:48:50.798Z,963.54
2023-01-17T10:49:50.944Z,963.56
2023-01-17T10:50:50.852Z,963.54
2023-01-17T10:51:50.778Z,963.56
2023-01-17T10:52:51.303Z,963.50
2023-01-17T10:53:50.150Z,963.49
2023-01-17T10:54:49.999Z,963.52
2023-01-17T10:55:50.080Z,963.52
2023-01-17T10:56:50.052Z,963.54
2023-01-17T10:57:50.072Z,963.53
2023-01-17T10:58:50.173Z,963.57
2023-01-17T10:59:50.303Z,963.60
2023-01-17T11:00:50.273Z,963.57
2023-01-17T11:01:51.300Z,963.58
2023-01-17T11:02:50.836Z,963.56
2023-01-17T11:03:50.441Z,963.58
2023-01-17T11:04:49.861Z,963.52
2023-01-17T11:05:50.580Z,963.52
2023-01-17T11:06:58.139Z,963.50
2023-01-17T11:07:51.526Z,963.54
2023-01-17T11:08:50.272Z,963.54
2023-01-17T11:09:50.566Z,963.51
2023-01-17T11:10:50.724Z,963.51
2023-01-17T11:11:50.990Z,963.53
2023-01-17T11:12:50.535Z,963.51
2023-01-17T11:13:50.696Z,963.50
2023-01-17T11:14:50.602Z,963.48
2023-01-17T11:15:50.536Z,963.49
2023-01-17T11:16:50.413Z,963.53
2023-01-17T11:17:50.560Z,963.54
2023-01-17T11:18:50.488Z,963.53
2023-01-17T11:19:50.628Z,963.51
2023-01-17T11:20:50.537Z,963.56
2023-01-17T11:21:50.429Z,963.49
2023-01-17T11:22:50.349Z,963.53
2023-01-17T11:23:49.623Z,963.52
2023-01-17T11:24:49.658Z,963.50
2023-01-17T11:25:49.719Z,963.54
2023-01-17T11:26:49.862Z,963.51
2023-01-17T11:27:49.854Z,963.51
2023-01-17T11:28:49.900Z,963.50
2023-01-17T11:29:49.988Z,963.55
2023-01-17T11:30:50.060Z,963.49
2023-01-17T11:31:50.067Z,963.51
2023-01-17T11:32:50.135Z,963.52
2023-01-17T11:33:50.190Z,963.50
2023-01-17T11:34:50.217Z,963.54
2023-01-17T11:35:49.497Z,963.56
2023-01-17T11:36:50.288Z,963.53
2023-01-17T11:37:50.199Z,963.56
2023-01-17T11:38:49.415Z,963.51
2023-01-17T11:39:50.259Z,963.53
2023-01-17T11:40:50.211Z,963.52
2023-01-17T11:41:50.433Z,963.53
2023-01-17T11:42:50.205Z,963.50
2023-01-17T11:43:49.359Z,963.50
2023-01-17T11:44:49.437Z,963.48
2023-01-17T11:45:49.486Z,963.48
2023-01-17T11:46:49.546Z,963.56
2023-01-17T11:47:49.299Z,963.55
2023-01-17T11:48:49.266Z,963.51
2023-01-17T11:49:49.425Z,963.52
2023-01-17T11:50:49.483Z,963.56
2023-01-17T11:51:49.248Z,963.51
2023-01-17T11:52:49.277Z,963.52
2023-01-17T11:53:49.314Z,963.56
2023-01-17T11:54:49.377Z,963.56
2023-01-17T11:55:49.425Z,963.57
2023-01-17T11:56:49.491Z,963.57
2023-01-17T11:57:49.547Z,963.54
2023-01-17T11:58:49.603Z,963.57
2023-01-17T11:59:49.656Z,963.51
2023-01-17T12:00:49.140Z,963.58
2023-01-17T12:01:49.874Z,963.54
2023-01-17T12:02:49.563Z,963.57
2023-01-17T12:03:49.901Z,963.59
2023-01-17T12:04:49.937Z,963.57
2023-01-17T12:05:49.795Z,963.56
2023-01-17T12:06:57.741Z,963.58
2023-01-17T12:07:50.119Z,963.56
2023-01-17T12:08:49.777Z,963.55
2023-01-17T12:09:49.934Z,963.53
2023-01-17T12:10:49.843Z,963.60
2023-01-17T12:11:49.737Z,963.56
2023-01-17T12:12:50.243Z,963.56
2023-01-17T12:13:49.793Z,963.53
2023-01-17T12:14:49.027Z,963.57
2023-01-17T12:15:49.922Z,963.54
2023-01-17T12:16:49.462Z,963.51
2023-01-17T12:17:49.861Z,963.57
2023-01-17T12:18:48.922Z,963.57
2023-01-17T12:19:49.732Z,963.57
2023-01-17T12:20:48.864Z,963.55
2023-01-17T12:21:48.890Z,963.57
2023-01-17T12:22:48.953Z,963.57
2023-01-17T12:23:49.004Z,963.57
2023-01-17T12:24:49.067Z,963.60
2023-01-17T12:25:49.014Z,963.55
2023-01-17T12:26:49.199Z,963.55
2023-01-17T12:27:48.830Z,963.56
2023-01-17T12:28:50.215Z,963.57